createdAt,value
2018-07-28T00:00:32.258Z,5.90
2018-07-28T00:03:00.916Z,6.00
2018-07-28T00:05:29.280Z,5.97
2018-07-28T00:07:58.022Z,6.05
2018-07-28T00:10:26.885Z,6.42
2018-07-28T00:12:55.610Z,5.78
2018-07-28T00:15:24.354Z,6.17
2018-07-28T00:17:53.074Z,6.83
2018-07-28T00:20:21.812Z,5.97
2018-07-28T00:22:50.546Z,5.95
2018-07-28T00:25:19.312Z,6.00
2018-07-28T00:27:48.036Z,5.72
2018-07-28T00:30:17.062Z,5.95
2018-07-28T00:32:45.817Z,5.85
2018-07-28T00:35:14.566Z,5.47
2018-07-28T00:37:43.209Z,5.58
2018-07-28T00:40:11.938Z,5.83
2018-07-28T00:42:40.669Z,6.45
2018-07-28T00:45:09.383Z,6.12
2018-07-28T00:47:38.116Z,5.75
2018-07-28T00:50:08.043Z,5.60
2018-07-28T00:52:36.759Z,5.22
2018-07-28T00:55:06.154Z,5.70
2018-07-28T00:57:34.967Z,5.58
2018-07-28T01:00:03.774Z,5.80
2018-07-28T01:02:32.124Z,5.30
2018-07-28T01:05:00.801Z,5.37
2018-07-28T01:07:29.554Z,5.50
2018-07-28T01:09:58.314Z,5.53
2018-07-28T01:12:27.022Z,5.70
2018-07-28T01:14:55.766Z,5.80
2018-07-28T01:17:24.470Z,5.40
2018-07-28T01:19:53.273Z,5.33
2018-07-28T01:22:22.035Z,5.70
2018-07-28T01:24:50.803Z,5.40
2018-07-28T01:27:19.543Z,5.10
2018-07-28T01:29:48.252Z,5.25
2018-07-28T01:32:17.004Z,4.97
2018-07-28T01:34:45.704Z,5.17
2018-07-28T01:37:14.446Z,5.35
2018-07-28T01:39:57.609Z,5.25
2018-07-28T01:42:26.350Z,5.10
2018-07-28T01:44:55.067Z,5.12
2018-07-28T01:47:23.822Z,5.00
2018-07-28T01:49:52.149Z,5.45
2018-07-28T01:52:20.914Z,5.20
2018-07-28T01:54:49.661Z,5.80
2018-07-28T01:57:18.417Z,5.53
2018-07-28T01:59:47.201Z,5.08
2018-07-28T02:02:15.964Z,5.30
2018-07-28T02:04:44.749Z,5.37
2018-07-28T02:07:13.469Z,5.40
2018-07-28T02:09:42.205Z,5.10
2018-07-28T02:12:10.992Z,5.42
2018-07-28T02:14:39.694Z,5.53
2018-07-28T02:17:08.433Z,5.58
2018-07-28T02:19:37.139Z,5.85
2018-07-28T02:22:05.875Z,5.65
2018-07-28T02:24:34.573Z,5.67
2018-07-28T02:27:03.609Z,5.62
2018-07-28T02:29:32.295Z,5.87
2018-07-28T02:32:01.076Z,5.90
2018-07-28T02:34:29.839Z,5.25
2018-07-28T02:36:58.566Z,5.15
2018-07-28T02:39:27.334Z,5.78
2018-07-28T02:41:56.046Z,5.80
2018-07-28T02:44:24.869Z,4.87
2018-07-28T02:46:53.556Z,5.90
2018-07-28T02:49:22.255Z,5.50
2018-07-28T02:51:51.033Z,5.42
2018-07-28T02:54:19.782Z,5.55
2018-07-28T02:56:48.459Z,5.30
2018-07-28T02:59:17.158Z,4.90
2018-07-28T03:01:45.897Z,5.30
2018-07-28T03:04:14.807Z,5.28
2018-07-28T03:06:43.494Z,5.10
2018-07-28T03:09:13.172Z,5.78
2018-07-28T03:11:42.354Z,5.60
2018-07-28T03:14:11.120Z,5.30
2018-07-28T03:16:39.894Z,5.67
2018-07-28T03:19:08.668Z,5.22
2018-07-28T03:21:37.458Z,5.55
2018-07-28T03:24:06.211Z,5.75
2018-07-28T03:26:34.948Z,5.55
2018-07-28T03:29:03.755Z,5.15
2018-07-28T03:31:32.142Z,5.20
2018-07-28T03:34:00.869Z,4.90
2018-07-28T03:36:29.593Z,5.60
2018-07-28T03:38:58.301Z,5.22
2018-07-28T03:41:27.067Z,5.30
2018-07-28T03:43:55.838Z,5.30
2018-07-28T03:46:24.564Z,5.03
2018-07-28T03:48:53.617Z,5.42
2018-07-28T03:51:22.318Z,4.97
2018-07-28T03:53:51.118Z,5.00
2018-07-28T03:56:19.850Z,5.00
2018-07-28T03:58:48.188Z,5.42
2018-07-28T04:01:16.871Z,6.05
2018-07-28T04:03:45.570Z,5.10
2018-07-28T04:06:14.298Z,4.97
2018-07-28T04:08:43.015Z,5.20
2018-07-28T04:11:12.002Z,5.87
2018-07-28T04:13:40.800Z,6.05
2018-07-28T04:16:09.499Z,5.10
2018-07-28T04:18:38.165Z,5.37
2018-07-28T04:21:06.954Z,5.08
2018-07-28T04:23:35.619Z,5.28
2018-07-28T04:26:04.589Z,5.40
2018-07-28T04:28:33.395Z,5.08
2018-07-28T04:31:02.121Z,5.20
2018-07-28T04:33:30.791Z,5.58
2018-07-28T04:35:59.499Z,5.15
2018-07-28T04:38:28.178Z,5.62
2018-07-28T04:40:56.890Z,5.33
2018-07-28T04:43:25.948Z,4.97
2018-07-28T04:45:54.664Z,5.10
2018-07-28T04:48:23.387Z,5.05
2018-07-28T04:50:52.116Z,5.67
2018-07-28T04:53:20.831Z,4.83
2018-07-28T04:55:49.541Z,5.55
2018-07-28T04:58:18.260Z,5.20
2018-07-28T05:00:47.003Z,5.20
2018-07-28T05:03:15.687Z,4.97
2018-07-28T05:05:44.428Z,4.80
2018-07-28T05:08:13.133Z,4.85
2018-07-28T05:10:41.850Z,5.33
2018-07-28T05:13:10.534Z,5.25
2018-07-28T05:15:39.257Z,5.10
2018-07-28T05:18:08.004Z,5.25
2018-07-28T05:20:36.737Z,4.85
2018-07-28T05:23:05.484Z,5.22
2018-07-28T05:25:34.167Z,5.08
2018-07-28T05:28:02.909Z,5.20
2018-07-28T05:30:31.833Z,5.22
2018-07-28T05:33:00.568Z,5.15
2018-07-28T05:35:29.295Z,5.30
2018-07-28T05:37:57.930Z,5.08
2018-07-28T05:40:26.614Z,5.00
2018-07-28T05:42:55.291Z,5.00
2018-07-28T05:45:23.961Z,4.78
2018-07-28T05:47:52.655Z,4.92
2018-07-28T05:50:21.112Z,4.75
2018-07-28T05:52:49.893Z,4.95
2018-07-28T05:55:18.605Z,4.97
2018-07-28T05:57:47.292Z,5.12
2018-07-28T06:00:16.026Z,4.83
2018-07-28T06:02:44.772Z,5.10
2018-07-28T06:05:13.542Z,4.80
2018-07-28T06:07:42.248Z,5.00
2018-07-28T06:10:11.186Z,4.95
2018-07-28T06:12:39.516Z,5.10
2018-07-28T06:15:08.569Z,4.97
2018-07-28T06:17:37.300Z,5.08
2018-07-28T06:20:07.342Z,4.67
2018-07-28T06:22:36.164Z,5.00
2018-07-28T06:25:05.961Z,4.87
2018-07-28T06:27:34.708Z,5.25
2018-07-28T06:30:03.773Z,5.72
2018-07-28T06:32:32.496Z,4.95
2018-07-28T06:35:01.174Z,5.53
2018-07-28T06:37:29.923Z,5.12
2018-07-28T06:39:58.639Z,5.40
2018-07-28T06:42:27.372Z,5.10
2018-07-28T06:44:56.213Z,5.22
2018-07-28T06:47:24.946Z,5.33
2018-07-28T06:49:53.809Z,5.37
2018-07-28T06:52:22.769Z,5.28
2018-07-28T06:54:51.528Z,5.30
2018-07-28T06:57:20.241Z,5.72
2018-07-28T06:59:48.975Z,4.62
2018-07-28T07:02:17.692Z,5.12
2018-07-28T07:04:46.394Z,5.25
2018-07-28T07:07:15.113Z,5.60
2018-07-28T07:09:43.842Z,5.20
2018-07-28T07:12:12.606Z,4.95
2018-07-28T07:14:41.391Z,5.25
2018-07-28T07:17:10.131Z,4.95
2018-07-28T07:19:38.851Z,5.08
2018-07-28T07:22:07.595Z,5.20
2018-07-28T07:24:36.314Z,5.05
2018-07-28T07:27:05.184Z,5.25
2018-07-28T07:29:33.961Z,4.92
2018-07-28T07:32:02.452Z,5.58
2018-07-28T07:34:31.381Z,5.42
2018-07-28T07:37:02.068Z,5.62
2018-07-28T07:39:33.755Z,5.08
2018-07-28T07:42:02.766Z,5.17
2018-07-28T07:44:31.484Z,5.40
2018-07-28T07:47:00.186Z,5.10
2018-07-28T07:49:28.893Z,5.47
2018-07-28T07:51:57.646Z,5.30
2018-07-28T07:54:26.377Z,5.30
2018-07-28T07:56:55.925Z,4.90
2018-07-28T07:59:24.476Z,4.87
2018-07-28T08:01:52.817Z,5.37
2018-07-28T08:04:21.824Z,5.40
2018-07-28T08:06:50.546Z,5.30
2018-07-28T08:09:19.993Z,5.17
2018-07-28T08:11:48.686Z,5.35
2018-07-28T08:14:17.402Z,5.12
2018-07-28T08:16:46.090Z,5.53
2018-07-28T08:19:14.811Z,5.50
2018-07-28T08:21:43.632Z,5.65
2018-07-28T08:24:12.451Z,6.22
2018-07-28T08:26:41.164Z,5.50
2018-07-28T08:29:10.211Z,5.35
2018-07-28T08:31:39.044Z,5.85
2018-07-28T08:34:07.829Z,5.65
2018-07-28T08:36:36.579Z,5.78
2018-07-28T08:39:09.053Z,5.58
2018-07-28T08:41:37.793Z,5.53
2018-07-28T08:44:06.581Z,5.20
2018-07-28T08:46:35.312Z,5.62
2018-07-28T08:49:04.352Z,5.37
2018-07-28T08:51:33.074Z,5.85
2018-07-28T08:54:01.726Z,5.35
2018-07-28T08:56:30.513Z,5.67
2018-07-28T08:58:59.201Z,5.72
2018-07-28T09:01:27.903Z,5.95
2018-07-28T09:03:56.712Z,5.87
2018-07-28T09:06:25.366Z,5.90
2018-07-28T09:08:54.056Z,5.92
2018-07-28T09:11:22.796Z,5.75
2018-07-28T09:13:51.628Z,5.83
2018-07-28T09:16:20.375Z,5.70
2018-07-28T09:18:49.057Z,5.78
2018-07-28T09:21:17.797Z,6.33
2018-07-28T09:23:46.501Z,6.20
2018-07-28T09:26:15.610Z,5.70
2018-07-28T09:28:44.480Z,6.15
2018-07-28T09:31:13.253Z,6.50
2018-07-28T09:33:42.076Z,6.50
2018-07-28T09:36:10.984Z,7.40
2018-07-28T09:38:39.781Z,6.95
2018-07-28T09:41:08.562Z,6.42
2018-07-28T09:43:37.313Z,6.58
2018-07-28T09:46:05.959Z,6.92
2018-07-28T09:48:34.686Z,7.30
2018-07-28T09:51:03.085Z,7.05
2018-07-28T09:53:31.847Z,7.33
2018-07-28T09:56:00.552Z,6.97
2018-07-28T09:58:29.268Z,7.10
2018-07-28T10:01:30.661Z,6.50
2018-07-28T10:03:59.423Z,7.42
2018-07-28T10:06:28.145Z,7.20
2018-07-28T10:08:56.910Z,7.78
2018-07-28T10:11:25.670Z,7.12
2018-07-28T10:16:27.416Z,8.73
2018-07-28T10:18:55.758Z,7.40
2018-07-28T10:21:24.462Z,7.20
2018-07-28T10:23:52.772Z,7.83
2018-07-28T10:26:21.118Z,7.75
2018-07-28T10:28:49.876Z,8.45
2018-07-28T10:31:18.860Z,7.65
2018-07-28T10:33:47.613Z,8.05
2018-07-28T10:36:15.942Z,7.90
2018-07-28T10:38:44.361Z,8.33
2018-07-28T10:41:14.280Z,9.48
2018-07-28T10:43:42.953Z,8.80
2018-07-28T10:46:11.868Z,9.38
2018-07-28T10:48:40.543Z,9.18
2018-07-28T10:51:09.257Z,8.88
2018-07-28T10:53:38.067Z,9.70
2018-07-28T10:56:06.801Z,9.38
2018-07-28T10:58:35.519Z,8.93
2018-07-28T11:01:04.283Z,9.25
2018-07-28T11:03:33.050Z,8.98
2018-07-28T11:06:01.774Z,9.18
2018-07-28T11:08:30.484Z,9.03
2018-07-28T11:10:58.857Z,8.75
2018-07-28T11:13:27.553Z,9.28
2018-07-28T11:15:56.377Z,9.35
2018-07-28T11:18:25.063Z,9.00
2018-07-28T11:20:53.796Z,10.18
2018-07-28T11:23:33.903Z,9.85
2018-07-28T11:26:02.674Z,8.28
2018-07-28T11:28:31.427Z,7.55
2018-07-28T11:31:00.189Z,6.83
2018-07-28T11:33:40.329Z,7.20
2018-07-28T11:36:20.329Z,7.85
2018-07-28T11:38:59.967Z,5.90
2018-07-28T11:41:39.896Z,5.87
2018-07-28T11:44:19.813Z,4.90
2018-07-28T11:46:48.532Z,5.50
2018-07-28T11:49:17.681Z,4.95
2018-07-28T11:51:46.402Z,4.85
2018-07-28T11:54:15.103Z,4.75
2018-07-28T11:56:44.705Z,5.05
2018-07-28T11:59:13.446Z,4.83
2018-07-28T12:01:41.856Z,5.12
2018-07-28T12:04:10.592Z,5.00
2018-07-28T12:06:39.376Z,5.53
2018-07-28T12:09:08.645Z,5.72
2018-07-28T12:11:37.369Z,6.10
2018-07-28T12:14:06.110Z,6.47
2018-07-28T12:16:34.907Z,6.65
2018-07-28T12:19:03.647Z,5.78
2018-07-28T12:21:32.311Z,6.58
2018-07-28T12:24:01.024Z,5.97
2018-07-28T12:26:29.809Z,5.85
2018-07-28T12:28:58.521Z,5.83
2018-07-28T12:31:27.242Z,5.50
2018-07-28T12:33:55.968Z,5.95
2018-07-28T12:36:24.701Z,5.90
2018-07-28T12:38:53.436Z,5.25
2018-07-28T12:41:22.133Z,5.42
2018-07-28T12:43:50.918Z,5.05
2018-07-28T12:46:19.702Z,5.62
2018-07-28T12:48:48.460Z,5.45
2018-07-28T12:51:17.169Z,4.85
2018-07-28T12:53:45.912Z,5.30
2018-07-28T12:56:14.603Z,5.45
2018-07-28T12:58:43.361Z,5.65
2018-07-28T13:01:12.059Z,6.65
2018-07-28T13:03:40.797Z,6.47
2018-07-28T13:06:09.589Z,6.20
2018-07-28T13:08:38.264Z,6.30
2018-07-28T13:11:07.107Z,5.80
2018-07-28T13:13:35.454Z,6.50
2018-07-28T13:16:04.162Z,6.65
2018-07-28T13:18:32.926Z,7.17
2018-07-28T13:21:01.595Z,6.72
2018-07-28T13:23:30.400Z,7.00
2018-07-28T13:25:59.138Z,6.65
2018-07-28T13:28:27.855Z,7.33
2018-07-28T13:30:56.592Z,6.75
2018-07-28T13:33:25.232Z,6.00
2018-07-28T13:35:53.912Z,5.80
2018-07-28T13:38:22.585Z,5.65
2018-07-28T13:40:51.286Z,6.22
2018-07-28T13:43:30.335Z,6.70
2018-07-28T13:45:59.201Z,6.33
2018-07-28T13:48:28.006Z,6.00
2018-07-28T13:50:56.735Z,6.08
2018-07-28T13:53:27.401Z,4.75
2018-07-28T13:55:56.510Z,5.72
2018-07-28T13:58:25.199Z,5.53
2018-07-28T14:00:53.942Z,4.95
2018-07-28T14:03:22.682Z,4.95
2018-07-28T14:05:51.372Z,5.60
2018-07-28T14:08:20.200Z,5.55
2018-07-28T14:10:48.891Z,5.30
2018-07-28T14:13:17.617Z,5.50
2018-07-28T14:15:46.327Z,5.53
2018-07-28T14:18:15.211Z,5.80
2018-07-28T14:20:43.590Z,5.42
2018-07-28T14:23:12.345Z,6.47
2018-07-28T14:25:41.035Z,6.00
2018-07-28T14:28:09.758Z,6.10
2018-07-28T14:30:39.801Z,5.55
2018-07-28T14:33:08.539Z,6.00
2018-07-28T14:35:37.382Z,6.00
2018-07-28T14:38:06.119Z,5.67
2018-07-28T14:40:34.818Z,5.95
2018-07-28T14:43:03.548Z,5.90
2018-07-28T14:45:32.291Z,6.08
2018-07-28T14:48:00.979Z,5.90
2018-07-28T14:50:29.955Z,6.08
2018-07-28T14:52:58.403Z,5.45
2018-07-28T14:55:28.190Z,6.47
2018-07-28T14:57:56.891Z,5.80
2018-07-28T15:00:25.602Z,6.75
2018-07-28T15:02:54.290Z,6.35
2018-07-28T15:05:23.007Z,5.92
2018-07-28T15:07:51.732Z,6.08
2018-07-28T15:10:20.600Z,6.25
2018-07-28T15:12:49.275Z,6.25
2018-07-28T15:15:18.067Z,5.47
2018-07-28T15:17:46.843Z,5.75
2018-07-28T15:20:15.650Z,5.78
2018-07-28T15:22:44.378Z,6.03
2018-07-28T15:25:13.072Z,5.70
2018-07-28T15:27:41.807Z,5.97
2018-07-28T15:30:10.240Z,5.85
2018-07-28T15:32:39.016Z,5.55
2018-07-28T15:35:07.738Z,5.22
2018-07-28T15:37:36.435Z,5.95
2018-07-28T15:40:06.447Z,6.10
2018-07-28T15:42:35.170Z,5.67
2018-07-28T15:45:04.142Z,5.65
2018-07-28T15:47:32.488Z,6.35
2018-07-28T15:50:01.192Z,5.95
2018-07-28T15:52:29.910Z,5.60
2018-07-28T15:54:58.663Z,5.83
2018-07-28T15:57:27.386Z,5.37
2018-07-28T15:59:56.148Z,5.42
2018-07-28T16:02:24.501Z,5.28
2018-07-28T16:04:53.283Z,6.25
2018-07-28T16:07:22.024Z,5.80
2018-07-28T16:09:50.921Z,5.40
2018-07-28T16:12:19.644Z,5.72
2018-07-28T16:14:48.386Z,6.00
2018-07-28T16:17:17.115Z,5.80
2018-07-28T16:19:45.808Z,5.47
2018-07-28T16:22:14.562Z,5.58
2018-07-28T16:24:43.255Z,5.40
2018-07-28T16:27:11.953Z,6.20
2018-07-28T16:29:40.723Z,6.40
2018-07-28T16:32:09.470Z,5.90
2018-07-28T16:34:38.375Z,5.53
2018-07-28T16:37:07.075Z,5.50
2018-07-28T16:39:36.054Z,6.20
2018-07-28T16:42:04.910Z,6.08
2018-07-28T16:44:33.683Z,6.15
2018-07-28T16:47:02.369Z,4.33
2018-07-28T16:49:31.258Z,4.22
2018-07-28T16:52:00.011Z,3.60
2018-07-28T16:54:28.767Z,3.52
2018-07-28T16:56:57.509Z,3.47
2018-07-28T16:59:26.593Z,2.92
2018-07-28T17:01:55.500Z,3.25
2018-07-28T17:04:24.213Z,3.02
2018-07-28T17:06:52.921Z,3.37
2018-07-28T17:09:21.907Z,3.10
2018-07-28T17:11:50.609Z,3.60
2018-07-28T17:14:19.285Z,3.58
2018-07-28T17:16:47.994Z,4.10
2018-07-28T17:19:16.710Z,3.52
2018-07-28T17:21:45.422Z,3.80
2018-07-28T17:24:14.155Z,3.90
2018-07-28T17:26:42.894Z,3.90
2018-07-28T17:29:11.608Z,3.80
2018-07-28T17:31:40.304Z,4.03
2018-07-28T17:34:13.632Z,4.00
2018-07-28T17:36:42.531Z,3.25
2018-07-28T17:39:12.220Z,3.65
2018-07-28T17:41:41.498Z,4.15
2018-07-28T17:44:10.774Z,3.67
2018-07-28T17:46:39.476Z,4.47
2018-07-28T17:49:08.179Z,4.47
2018-07-28T17:51:37.395Z,3.97
2018-07-28T17:54:06.721Z,4.27
2018-07-28T17:56:35.251Z,4.10
2018-07-28T17:59:04.024Z,4.30
2018-07-28T18:01:32.801Z,4.80
2018-07-28T18:04:01.498Z,4.30
2018-07-28T18:06:30.230Z,4.57
2018-07-28T18:08:58.924Z,4.93
2018-07-28T18:11:27.633Z,4.90
2018-07-28T18:13:56.340Z,4.93
2018-07-28T18:16:25.086Z,4.67
2018-07-28T18:18:53.802Z,4.58
2018-07-28T18:21:22.639Z,5.20
2018-07-28T18:23:51.373Z,5.43
2018-07-28T18:26:20.074Z,5.20
2018-07-28T18:28:48.808Z,5.07
2018-07-28T18:31:17.545Z,4.97
2018-07-28T18:33:46.226Z,5.10
2018-07-28T18:36:14.920Z,4.67
2018-07-28T18:38:43.661Z,4.97
2018-07-28T18:41:12.393Z,5.30
2018-07-28T18:43:41.190Z,5.40
2018-07-28T18:46:10.425Z,5.22
2018-07-28T18:48:39.363Z,5.50
2018-07-28T18:51:08.121Z,6.08
2018-07-28T18:53:36.817Z,6.28
2018-07-28T18:56:05.777Z,5.85
2018-07-28T18:58:34.596Z,6.00
2018-07-28T19:01:03.321Z,6.05
2018-07-28T19:03:32.051Z,6.40
2018-07-28T19:06:00.812Z,6.40
2018-07-28T19:08:29.518Z,6.80
2018-07-28T19:10:58.334Z,5.87
2018-07-28T19:13:32.433Z,6.42
2018-07-28T19:16:01.169Z,6.08
2018-07-28T19:18:35.152Z,6.00
2018-07-28T19:21:03.876Z,5.42
2018-07-28T19:23:37.813Z,5.97
2018-07-28T19:26:06.817Z,6.30
2018-07-28T19:28:40.850Z,5.93
2018-07-28T19:31:10.295Z,5.78
2018-07-28T19:33:39.067Z,6.08
2018-07-28T19:36:12.832Z,6.25
2018-07-28T19:38:41.596Z,6.45
2018-07-28T19:41:10.278Z,6.00
2018-07-28T19:43:38.922Z,6.30
2018-07-28T19:46:07.668Z,6.92
2018-07-28T19:48:36.360Z,6.13
2018-07-28T19:51:05.098Z,6.27
2018-07-28T19:53:33.835Z,6.47
2018-07-28T19:56:02.568Z,6.30
2018-07-28T19:58:31.316Z,5.73
2018-07-28T20:01:00.066Z,4.97
2018-07-28T20:03:28.785Z,5.10
2018-07-28T20:05:57.105Z,5.50
2018-07-28T20:08:25.827Z,5.22
2018-07-28T20:10:54.508Z,5.47
2018-07-28T20:13:23.272Z,5.47
2018-07-28T20:15:51.958Z,5.50
2018-07-28T20:18:20.674Z,5.75
2018-07-28T20:20:49.435Z,5.40
2018-07-28T20:23:18.253Z,5.40
2018-07-28T20:25:47.298Z,4.83
2018-07-28T20:28:16.043Z,4.90
2018-07-28T20:30:44.794Z,5.20
2018-07-28T20:33:13.631Z,5.08
2018-07-28T20:35:42.373Z,4.90
2018-07-28T20:38:11.080Z,5.10
2018-07-28T20:40:39.841Z,5.70
2018-07-28T20:43:08.593Z,6.15
2018-07-28T20:45:37.300Z,5.80
2018-07-28T20:48:07.113Z,5.60
2018-07-28T20:50:35.837Z,5.00
2018-07-28T20:53:04.658Z,4.92
2018-07-28T20:55:33.368Z,4.90
2018-07-28T20:58:02.058Z,5.75
2018-07-28T21:00:30.761Z,5.03
2018-07-28T21:02:59.533Z,5.65
2018-07-28T21:05:28.280Z,5.87
2018-07-28T21:07:59.984Z,5.95
2018-07-28T21:10:28.710Z,5.47
2018-07-28T21:12:57.417Z,5.90
2018-07-28T21:15:26.552Z,6.45
2018-07-28T21:17:55.268Z,7.17
2018-07-28T21:20:24.045Z,7.07
2018-07-28T21:22:52.772Z,6.53
2018-07-28T21:25:21.484Z,5.92
2018-07-28T21:27:50.275Z,5.72
2018-07-28T21:30:18.994Z,6.40
2018-07-28T21:32:47.758Z,6.30
2018-07-28T21:35:16.468Z,6.00
2018-07-28T21:37:45.167Z,5.67
2018-07-28T21:40:14.078Z,6.33
2018-07-28T21:42:42.863Z,7.27
2018-07-28T21:45:11.593Z,6.03
2018-07-28T21:47:40.347Z,6.27
2018-07-28T21:50:09.065Z,5.90
2018-07-28T21:52:37.767Z,6.10
2018-07-28T21:55:06.637Z,5.97
2018-07-28T21:57:34.978Z,5.73
2018-07-28T22:00:03.876Z,6.30
2018-07-28T22:02:32.576Z,6.33
2018-07-28T22:05:01.342Z,6.43
2018-07-28T22:07:30.021Z,6.90
2018-07-28T22:09:58.735Z,6.30
2018-07-28T22:12:27.467Z,7.47
2018-07-28T22:14:56.202Z,7.97
2018-07-28T22:17:24.933Z,7.23
2018-07-28T22:19:53.645Z,6.10
2018-07-28T22:22:22.045Z,6.80
2018-07-28T22:24:50.774Z,6.57
2018-07-28T22:27:19.536Z,6.30
2018-07-28T22:29:48.293Z,6.90
2018-07-28T22:32:17.054Z,6.00
2018-07-28T22:34:45.727Z,5.70
2018-07-28T22:37:14.460Z,5.87
2018-07-28T22:39:43.233Z,5.80
2018-07-28T22:42:11.936Z,5.23
2018-07-28T22:44:40.662Z,6.20
2018-07-28T22:47:09.365Z,5.70
2018-07-28T22:49:38.074Z,5.13
2018-07-28T22:52:06.906Z,5.07
2018-07-28T22:54:35.633Z,4.87
2018-07-28T22:57:04.408Z,5.15
2018-07-28T22:59:33.117Z,4.90
2018-07-28T23:02:01.881Z,5.10
2018-07-28T23:04:30.582Z,5.50
2018-07-28T23:06:59.371Z,5.10
2018-07-28T23:09:28.078Z,5.10
2018-07-28T23:11:56.757Z,5.43
2018-07-28T23:14:25.494Z,5.27
2018-07-28T23:16:54.235Z,4.70
2018-07-28T23:19:23.041Z,4.80
2018-07-28T23:21:51.385Z,4.73
2018-07-28T23:24:20.104Z,4.83
2018-07-28T23:26:48.412Z,4.83
2018-07-28T23:29:17.153Z,4.80
2018-07-28T23:31:45.898Z,5.00
2018-07-28T23:34:14.637Z,5.50
2018-07-28T23:36:43.036Z,5.83
2018-07-28T23:39:11.809Z,5.60
2018-07-28T23:41:40.597Z,5.33
2018-07-28T23:44:09.342Z,5.13
2018-07-28T23:46:38.035Z,4.70
2018-07-28T23:49:06.718Z,4.87
2018-07-28T23:51:35.444Z,4.73
2018-07-28T23:54:04.269Z,4.57
2018-07-28T23:56:33.019Z,5.00
2018-07-28T23:59:01.731Z,4.67
